Time;durP1;ratioP1;P1;durP2;ratioP2;P2;SDS_P1;SDS_P2;PMS_P1;PMS_P2;Temp;Humidity;BMP_temperature;BMP_pressure;BME280_temperature;BME280_humidity;BME280_pressure;Samples;Min_cycle;Max_cycle;Signal;HPM_P1;HPM_P2
2022/05/09 00:00:13;;;;;;;1.80;1.40;;;;;;;17.71;61.65;97213.31;10532539;28;20032;-25
2022/05/09 00:05:16;;;;;;;1.60;1.50;;;;;;;17.65;58.75;97218.34;10531786;28;20028;-23
2022/05/09 00:10:19;;;;;;;1.60;1.30;;;;;;;17.52;58.14;97201.31;10509364;28;20068;-23
2022/05/09 00:15:20;;;;;;;1.20;1.10;;;;;;;17.53;57.93;97210.59;10490805;28;20090;-23
2022/05/09 00:20:20;;;;;;;1.73;1.45;;;;;;;17.49;57.66;97203.81;10527688;28;20185;-23
2022/05/09 00:25:24;;;;;;;1.10;1.00;;;;;;;17.51;57.77;97207.22;10525302;28;20119;-24
2022/05/09 00:30:24;;;;;;;1.42;1.02;;;;;;;17.50;57.82;97202.97;10490727;28;20028;-25
2022/05/09 00:35:25;;;;;;;1.35;1.20;;;;;;;17.49;58.01;97203.81;10490568;28;20044;-23
2022/05/09 00:40:25;;;;;;;1.50;0.90;;;;;;;17.48;57.99;97208.00;10491055;28;20041;-23
2022/05/09 00:45:26;;;;;;;1.10;1.00;;;;;;;17.50;57.98;97210.56;10490070;28;20407;-24
2022/05/09 00:50:31;;;;;;;3.10;1.80;;;;;;;17.63;62.33;97217.47;10521420;28;20040;-23
2022/05/09 00:55:41;;;;;;;4.75;1.70;;;;;;;17.67;61.62;97220.03;10510784;28;20116;-25
2022/05/09 01:00:45;;;;;;;3.25;1.17;;;;;;;17.64;58.95;97212.41;10498350;28;20444;-25
2022/05/09 01:05:50;;;;;;;1.20;0.90;;;;;;;17.58;58.11;97219.94;10523365;28;20106;-23
2022/05/09 01:10:52;;;;;;;0.95;0.95;;;;;;;17.56;58.00;97213.19;10512020;28;20048;-23
2022/05/09 01:15:54;;;;;;;1.77;1.33;;;;;;;17.51;58.04;97215.63;10498002;28;20036;-24
2022/05/09 01:20:55;;;;;;;0.93;0.70;;;;;;;17.51;57.75;97205.50;10504884;28;20110;-23
2022/05/09 01:25:57;;;;;;;1.10;0.90;;;;;;;17.50;57.89;97205.50;10523092;28;20032;-24
2022/05/09 01:31:01;;;;;;;1.38;1.10;;;;;;;17.48;57.90;97200.44;10536013;28;20032;-24
2022/05/09 01:36:11;;;;;;;2.17;1.00;;;;;;;17.50;57.82;97206.34;10534547;28;20044;-24
2022/05/09 01:41:14;;;;;;;1.55;1.23;;;;;;;17.50;58.09;97205.50;10507137;28;20465;-23
2022/05/09 01:46:18;;;;;;;2.10;1.60;;;;;;;17.63;62.31;97209.88;10496158;28;20042;-24
2022/05/09 01:51:19;;;;;;;2.38;1.48;;;;;;;17.69;62.06;97212.47;10496289;28;20286;-23
2022/05/09 01:56:25;;;;;;;2.88;1.17;;;;;;;17.69;59.88;97215.00;10527359;28;20036;-24
2022/05/09 02:01:29;;;;;;;1.02;0.93;;;;;;;17.60;58.29;97213.25;10533163;28;20032;-22
2022/05/09 02:06:29;;;;;;;1.60;0.82;;;;;;;17.56;57.67;97211.50;10525841;28;20036;-23
2022/05/09 02:11:31;;;;;;;0.98;0.80;;;;;;;17.55;58.19;97217.38;10503810;28;20190;-23
2022/05/09 02:16:32;;;;;;;0.95;0.95;;;;;;;17.52;57.76;97216.50;10495666;28;20483;-25
2022/05/09 02:21:34;;;;;;;0.93;0.90;;;;;;;17.53;57.96;97215.66;10513516;28;20024;-24
2022/05/09 02:26:36;;;;;;;1.50;1.00;;;;;;;17.52;57.77;97216.50;10510962;27;20524;-23
2022/05/09 02:31:36;;;;;;;1.45;0.90;;;;;;;17.52;57.74;97212.31;10494839;28;20103;-24
2022/05/09 02:36:36;;;;;;;1.00;0.90;;;;;;;17.49;57.86;97214.78;10494048;28;20119;-23
2022/05/09 02:41:37;;;;;;;1.90;1.70;;;;;;;17.61;62.01;97221.66;10494004;28;20343;-24
2022/05/09 02:46:42;;;;;;;1.67;1.58;;;;;;;17.66;61.46;97225.13;10494123;28;20204;-23
2022/05/09 02:51:43;;;;;;;3.25;1.58;;;;;;;17.69;61.04;97235.25;10494679;28;20081;-23
2022/05/09 02:56:44;;;;;;;2.15;1.33;;;;;;;17.63;58.42;97230.13;10527721;28;20124;-23
2022/05/09 03:01:44;;;;;;;1.10;1.00;;;;;;;17.58;57.86;97222.47;10535647;28;20095;-23
2022/05/09 03:06:44;;;;;;;1.00;0.90;;;;;;;17.57;57.75;97227.53;10531376;28;20040;-24
2022/05/09 03:11:45;;;;;;;2.90;1.37;;;;;;;17.54;58.09;97220.75;10499076;28;20564;-23
2022/05/09 03:16:45;;;;;;;1.00;1.00;;;;;;;17.55;57.65;97230.03;10504493;28;20294;-24
2022/05/09 03:21:47;;;;;;;1.80;1.00;;;;;;;17.51;57.84;97225.75;10545963;28;20304;-23
2022/05/09 03:26:49;;;;;;;1.25;0.93;;;;;;;17.46;57.81;97208.81;10504345;28;20434;-23
2022/05/09 03:31:51;;;;;;;1.30;0.88;;;;;;;17.52;57.54;97221.56;10492357;28;20502;-24
2022/05/09 03:36:52;;;;;;;3.70;1.80;;;;;;;17.57;60.41;97225.00;10492480;28;20044;-23
2022/05/09 03:41:52;;;;;;;1.95;1.60;;;;;;;17.64;61.84;97214.09;10492343;28;20058;-24
2022/05/09 03:46:52;;;;;;;3.63;1.60;;;;;;;17.68;61.03;97225.97;10491826;28;20037;-24
2022/05/09 03:51:53;;;;;;;1.37;0.90;;;;;;;17.63;58.30;97215.78;10492132;28;20036;-25
2022/05/09 03:56:54;;;;;;;0.75;0.75;;;;;;;17.60;58.04;97219.97;10491202;28;20437;-23
2022/05/09 04:01:56;;;;;;;0.93;0.87;;;;;;;17.58;57.98;97221.63;10492241;28;20039;-23
2022/05/09 04:06:58;;;;;;;0.80;0.80;;;;;;;17.58;57.58;97226.72;10524825;28;20119;-25
2022/05/09 04:11:58;;;;;;;1.10;1.00;;;;;;;17.51;57.75;97213.09;10491359;28;20028;-24
2022/05/09 04:16:58;;;;;;;1.00;1.00;;;;;;;17.59;57.99;97233.47;10491192;28;20029;-24
2022/05/09 04:22:02;;;;;;;1.77;1.00;;;;;;;17.62;58.17;97230.97;10516586;28;20390;-24
2022/05/09 04:27:03;;;;;;;3.42;1.10;;;;;;;17.66;58.38;97237.78;10498245;28;20039;-24
2022/05/09 04:32:06;;;;;;;2.70;1.10;;;;;;;17.66;58.28;97236.06;10497276;28;20112;-23
2022/05/09 04:37:06;;;;;;;2.13;1.85;;;;;;;17.70;61.18;97236.97;10498584;28;20042;-23
2022/05/09 04:42:08;;;;;;;2.73;1.30;;;;;;;17.74;58.90;97233.66;10498678;28;20033;-23
2022/05/09 04:47:09;;;;;;;8.38;2.92;;;;;;;17.46;60.14;97251.84;10498672;28;20071;-24
2022/05/09 04:52:09;;;;;;;9.00;3.53;;;;;;;17.32;59.63;97248.28;10498092;28;20112;-23
2022/05/09 04:57:09;;;;;;;6.87;4.13;;;;;;;17.26;59.31;97254.09;10497988;28;20042;-24
2022/05/09 05:02:10;;;;;;;2.23;1.57;;;;;;;17.56;58.07;97253.69;10504331;28;20032;-23
2022/05/09 05:07:10;;;;;;;10.57;1.37;;;;;;;17.61;57.78;97259.66;10541482;28;20042;-23
2022/05/09 05:12:11;;;;;;;13.97;2.00;;;;;;;17.63;57.80;97253.78;10539453;28;20032;-24
2022/05/09 05:17:11;;;;;;;3.75;1.70;;;;;;;17.66;57.91;97270.69;10540107;28;20752;-24
2022/05/09 05:22:15;;;;;;;5.93;1.70;;;;;;;17.65;58.06;97261.41;10527648;28;20035;-24
2022/05/09 05:27:16;;;;;;;2.05;1.63;;;;;;;17.66;57.76;97265.63;10542222;28;20115;-25
2022/05/09 05:32:25;;;;;;;4.20;2.20;;;;;;;17.73;58.43;97264.88;10541373;28;20554;-23
2022/05/09 05:37:26;;;;;;;9.70;3.05;;;;;;;17.68;59.65;97253.81;10500115;28;20024;-23
2022/05/09 05:42:28;;;;;;;8.93;3.08;;;;;;;17.63;58.74;97279.09;10510232;28;20028;-25
2022/05/09 05:47:28;;;;;;;4.00;2.33;;;;;;;17.70;57.95;97285.94;10496514;28;20047;-23
2022/05/09 05:52:28;;;;;;;3.70;1.80;;;;;;;17.68;58.26;97284.22;10514905;28;20452;-24
2022/05/09 05:57:32;;;;;;;2.93;1.70;;;;;;;17.69;58.01;97290.97;10498476;28;20298;-24
2022/05/09 06:02:32;;;;;;;2.75;1.67;;;;;;;17.69;57.79;97299.44;10497802;28;20318;-23
2022/05/09 06:07:33;;;;;;;3.10;2.00;;;;;;;17.69;58.11;97294.38;10537437;28;20125;-26
2022/05/09 06:12:35;;;;;;;2.20;1.63;;;;;;;17.66;57.64;97296.00;10539348;28;20059;-24
2022/05/09 06:17:38;;;;;;;4.43;2.13;;;;;;;17.67;57.71;97302.78;10537904;28;20424;-25
2022/05/09 06:22:39;;;;;;;5.82;1.95;;;;;;;17.67;57.75;97293.47;10530960;28;20031;-24
2022/05/09 06:27:41;;;;;;;4.72;2.72;;;;;;;17.71;60.79;97297.75;10496152;28;20037;-22
2022/05/09 06:32:42;;;;;;;6.40;2.97;;;;;;;17.74;61.14;97297.78;10495431;28;20111;-24
2022/05/09 06:37:42;;;;;;;6.25;2.40;;;;;;;17.74;60.63;97304.56;10494711;28;20051;-23
2022/05/09 06:42:43;;;;;;;1.95;1.73;;;;;;;17.72;58.20;97301.13;10494721;28;20429;-24
2022/05/09 06:47:50;;;;;;;2.85;1.95;;;;;;;17.69;57.90;97299.44;10494202;28;20521;-25
2022/05/09 06:52:50;;;;;;;3.40;1.73;;;;;;;17.66;57.95;97298.53;10493071;28;20040;-25
2022/05/09 06:57:50;;;;;;;3.97;1.37;;;;;;;17.63;57.79;97294.28;10494553;28;20457;-24
2022/05/09 07:02:52;;;;;;;4.03;1.63;;;;;;;17.63;57.96;97295.94;10493537;28;20042;-24
2022/05/09 07:07:52;;;;;;;3.40;1.65;;;;;;;17.65;57.90;97294.31;10533267;28;20294;-24
2022/05/09 07:12:55;;;;;;;2.07;1.50;;;;;;;17.64;57.96;97292.59;10493523;28;20036;-23
2022/05/09 07:17:55;;;;;;;1.48;1.38;;;;;;;17.65;57.77;97291.78;10514890;28;20290;-23
2022/05/09 07:23:03;;;;;;;3.38;2.88;;;;;;;17.69;60.79;97296.91;10549454;28;20089;-24
2022/05/09 07:28:04;;;;;;;3.08;2.40;;;;;;;17.75;61.20;97281.75;10492782;28;20035;-23
2022/05/09 07:33:05;;;;;;;4.15;2.22;;;;;;;17.76;61.35;97287.69;10503543;28;20497;-24
2022/05/09 07:38:05;;;;;;;1.67;1.35;;;;;;;17.71;58.54;97291.84;10529535;28;20036;-24
2022/05/09 07:43:24;;;;;;;3.07;2.00;;;;;;;17.66;58.15;97288.41;10491586;28;20044;-25
2022/05/09 07:48:27;;;;;;;2.47;1.50;;;;;;;17.64;58.01;97287.53;10512101;28;20541;-25
2022/05/09 07:53:31;;;;;;;1.98;1.75;;;;;;;17.62;57.91;97287.53;10525624;28;20534;-24
2022/05/09 07:58:34;;;;;;;3.07;2.20;;;;;;;17.63;57.95;97284.16;10491549;28;20028;-23
2022/05/09 08:03:37;;;;;;;2.25;1.52;;;;;;;17.57;57.67;97275.66;10496645;28;20034;-25
2022/05/09 08:08:40;;;;;;;1.75;1.30;;;;;;;17.51;57.78;97265.44;10523733;28;20024;-23
2022/05/09 08:13:42;;;;;;;1.88;1.55;;;;;;;17.59;58.04;97279.88;10490951;28;20518;-23
2022/05/09 08:18:42;;;;;;;2.75;2.20;;;;;;;17.64;61.06;97283.31;10491230;28;20368;-23
2022/05/09 08:23:42;;;;;;;3.07;2.03;;;;;;;17.74;61.49;97284.28;10525433;28;20037;-23
2022/05/09 08:28:44;;;;;;;2.87;2.30;;;;;;;17.75;61.56;97283.47;10491284;28;20037;-23
2022/05/09 08:33:46;;;;;;;2.00;1.48;;;;;;;17.69;58.85;97288.44;10501493;28;20042;-25
2022/05/09 08:38:46;;;;;;;1.77;1.58;;;;;;;17.65;58.73;97289.25;10522260;28;20039;-23
2022/05/09 08:44:02;;;;;;;1.73;1.60;;;;;;;17.63;58.00;97290.88;10490958;28;20040;-23
2022/05/09 08:49:13;;;;;;;1.88;1.50;;;;;;;17.62;57.86;97289.19;10490579;28;20043;-24
2022/05/09 08:54:21;;;;;;;1.63;1.50;;;;;;;17.57;58.14;97285.78;10490732;28;20491;-24
2022/05/09 08:59:43;;;;;;;1.80;1.40;;;;;;;17.56;57.92;97289.97;10490467;28;20278;-23
2022/05/09 09:04:52;;;;;;;1.40;1.30;;;;;;;17.59;58.05;97294.22;10506184;28;20043;-24
2022/05/09 09:10:07;;;;;;;2.35;1.73;;;;;;;17.57;57.94;97294.19;10512308;28;20115;-24
2022/05/09 09:15:36;;;;;;;3.97;2.05;;;;;;;17.64;60.73;97297.66;10491487;28;20036;-23
2022/05/09 09:21:02;;;;;;;2.53;2.13;;;;;;;17.75;61.34;97296.94;10499525;28;20071;-24
2022/05/09 09:26:42;;;;;;;3.77;2.10;;;;;;;17.74;60.50;97300.31;10541526;28;20047;-23
2022/05/09 09:31:57;;;;;;;1.65;1.55;;;;;;;17.65;58.42;97306.97;10539068;28;20129;-24
2022/05/09 09:37:19;;;;;;;1.58;1.30;;;;;;;17.62;58.01;97304.38;10497108;28;20089;-23
2022/05/09 09:42:19;;;;;;;1.40;1.30;;;;;;;17.58;58.23;97307.72;10497049;28;20040;-24
2022/05/09 09:47:20;;;;;;;1.50;1.40;;;;;;;17.58;58.21;97312.78;10496940;28;20024;-24
2022/05/09 09:52:28;;;;;;;1.57;1.47;;;;;;;17.56;58.08;97309.41;10496469;28;20033;-23
2022/05/09 09:57:38;;;;;;;1.63;1.42;;;;;;;17.57;57.74;97311.09;10496564;28;20043;-25
2022/05/09 10:02:38;;;;;;;1.65;1.20;;;;;;;17.56;57.84;97306.88;10515198;28;20097;-25
2022/05/09 10:07:43;;;;;;;1.53;1.33;;;;;;;17.53;58.03;97309.34;10537223;28;20054;-24
2022/05/09 10:12:48;;;;;;;2.17;1.85;;;;;;;17.69;61.16;97316.28;10495888;28;20297;-24
2022/05/09 10:17:50;;;;;;;2.38;1.90;;;;;;;17.70;61.54;97292.66;10510715;28;20403;-23
2022/05/09 10:28:14;;;;;;;1.98;1.80;;;;;;;17.66;58.74;97298.53;10536714;28;20051;-25
2022/05/09 10:33:32;;;;;;;3.17;2.00;;;;;;;17.62;58.37;97292.59;10523284;28;20419;-24
2022/05/09 10:38:37;;;;;;;4.28;1.83;;;;;;;17.60;58.18;97283.28;10502845;28;20101;-23
2022/05/09 10:43:50;;;;;;;1.98;1.60;;;;;;;17.59;58.21;97282.41;10560948;28;20390;-24
2022/05/09 10:49:10;;;;;;;1.40;1.30;;;;;;;17.61;58.25;97278.22;10540823;28;20120;-23
2022/05/09 10:54:20;;;;;;;1.88;1.73;;;;;;;17.61;57.90;97272.31;10493736;28;20456;-23
2022/05/09 10:59:26;;;;;;;1.73;1.20;;;;;;;17.61;58.03;97268.09;10492779;28;20398;-23
2022/05/09 11:04:30;;;;;;;2.47;1.35;;;;;;;17.64;57.80;97274.84;10507203;28;20477;-23
2022/05/09 11:09:49;;;;;;;3.25;2.92;;;;;;;17.77;62.10;97264.91;10518014;28;20048;-23
2022/05/09 11:15:20;;;;;;;5.15;2.90;;;;;;;17.73;62.50;97249.69;10493820;28;20040;-25
2022/05/09 11:20:31;;;;;;;1.42;1.33;;;;;;;17.74;58.54;97259.81;10493502;28;20020;-23
2022/05/09 11:25:47;;;;;;;1.70;1.42;;;;;;;17.74;57.89;97264.03;10492560;28;20112;-23
2022/05/09 11:31:02;;;;;;;1.40;1.20;;;;;;;17.70;57.86;97258.06;10518585;28;20206;-24
2022/05/09 11:36:25;;;;;;;1.60;1.50;;;;;;;17.71;57.91;97263.97;10503547;28;20039;-25
2022/05/09 11:41:53;;;;;;;5.20;1.52;;;;;;;17.65;57.95;97239.44;10525494;28;20107;-22
2022/05/09 11:47:09;;;;;;;1.85;1.52;;;;;;;17.72;57.74;97253.00;10494386;28;20048;-24
2022/05/09 11:52:28;;;;;;;2.72;1.88;;;;;;;17.73;57.88;97247.13;10491732;28;20039;-24
2022/05/09 11:57:34;;;;;;;2.88;1.52;;;;;;;17.71;57.82;97244.59;10491782;28;20040;-23
2022/05/09 12:02:50;;;;;;;5.80;3.75;;;;;;;17.76;61.16;97237.03;10491099;28;20154;-24
2022/05/09 12:08:13;;;;;;;13.77;4.35;;;;;;;17.88;62.80;97227.03;10491663;28;20127;-25
2022/05/09 12:13:35;;;;;;;12.30;4.57;;;;;;;17.90;61.36;97221.13;10491116;28;20304;-23
2022/05/09 12:18:59;;;;;;;13.25;3.22;;;;;;;17.80;58.68;97219.34;10491219;28;20036;-24
2022/05/09 12:24:14;;;;;;;5.03;1.80;;;;;;;17.76;58.26;97227.75;10525405;28;20028;-24
2022/05/09 12:29:15;;;;;;;3.10;2.00;;;;;;;17.74;58.21;97218.44;10490868;28;20040;-23
2022/05/09 12:34:40;;;;;;;6.40;1.70;;;;;;;17.71;57.83;97214.19;10490049;28;20531;-24
2022/05/09 12:39:48;;;;;;;4.80;1.85;;;;;;;17.70;57.87;97194.78;10490325;28;20029;-23
2022/05/09 12:44:51;;;;;;;1.52;1.42;;;;;;;17.68;57.83;97201.47;10490048;28;20032;-23
2022/05/09 12:49:58;;;;;;;2.60;1.50;;;;;;;17.60;57.85;97180.31;10491570;28;20037;-25
2022/05/09 13:00:28;;;;;;;11.90;4.10;;;;;;;17.75;61.50;97193.13;10498917;28;20105;-24
2022/05/09 13:05:35;;;;;;;6.15;3.22;;;;;;;17.84;62.92;97194.91;10522672;28;20031;-25
2022/05/09 13:10:57;;;;;;;7.68;3.35;;;;;;;17.87;61.76;97194.94;10514079;28;20040;-24
2022/05/09 13:15:58;;;;;;;3.28;1.60;;;;;;;17.77;58.54;97175.41;10497275;28;20029;-25
2022/05/09 13:21:02;;;;;;;2.83;1.73;;;;;;;17.72;58.05;97174.50;10506249;28;20038;-24
2022/05/09 13:26:06;;;;;;;1.90;1.70;;;;;;;17.69;58.09;97169.44;10522160;27;20063;-24
2022/05/09 13:31:06;;;;;;;7.70;2.30;;;;;;;17.69;57.95;97175.34;10496970;28;20106;-24
2022/05/09 13:36:07;;;;;;;8.53;2.10;;;;;;;17.69;58.04;97175.34;10496937;28;20086;-23
2022/05/09 13:41:12;;;;;;;2.40;1.50;;;;;;;17.64;57.82;97158.38;10527062;28;20764;-23
2022/05/09 13:46:18;;;;;;;1.50;1.40;;;;;;;17.69;58.10;97164.38;10538693;28;20032;-24
2022/05/09 13:51:28;;;;;;;1.50;1.40;;;;;;;17.67;57.98;97155.91;10498723;28;20131;-23
2022/05/09 13:56:31;;;;;;;8.57;3.13;;;;;;;17.73;61.53;97150.91;10496619;28;20040;-24
2022/05/09 14:01:41;;;;;;;5.28;2.67;;;;;;;17.89;61.96;97148.53;10494577;28;20029;-24
2022/05/09 14:06:44;;;;;;;11.75;4.80;;;;;;;17.90;61.97;97142.63;10527880;28;20383;-23
2022/05/09 14:12:00;;;;;;;3.38;2.45;;;;;;;17.79;58.73;97128.16;10502201;28;20040;-25
2022/05/09 14:17:05;;;;;;;3.33;1.50;;;;;;;17.74;58.18;97132.34;10494168;28;20075;-23
2022/05/09 14:22:10;;;;;;;4.20;1.42;;;;;;;17.70;58.14;97126.41;10522435;28;20099;-24
2022/05/09 14:32:42;;;;;;;5.47;1.77;;;;;;;17.66;58.11;97114.53;10494787;28;20071;-24
2022/05/09 14:37:52;;;;;;;4.45;2.05;;;;;;;17.66;58.00;97106.94;10494744;28;20064;-24
2022/05/09 14:42:56;;;;;;;5.65;2.22;;;;;;;17.66;58.35;97106.09;10536248;28;20497;-25
2022/05/09 14:48:20;;;;;;;4.45;1.70;;;;;;;17.66;57.98;97099.34;10517798;28;20024;-24
2022/05/09 14:53:34;;;;;;;4.97;2.95;;;;;;;17.72;62.02;97096.00;10493568;28;20032;-22
2022/05/09 14:58:43;;;;;;;8.35;3.88;;;;;;;17.85;62.61;97093.63;10494174;28;20109;-22
2022/05/09 15:03:46;;;;;;;5.55;3.28;;;;;;;17.85;62.11;97090.22;10513721;28;20241;-24
2022/05/09 15:08:46;;;;;;;2.60;2.05;;;;;;;17.76;58.75;97080.03;10524943;28;20454;-23
2022/05/09 15:13:49;;;;;;;1.67;1.42;;;;;;;17.72;58.36;97088.41;10492538;28;20086;-23
2022/05/09 15:18:49;;;;;;;2.33;1.90;;;;;;;17.69;58.39;97099.38;10492932;28;20047;-23
2022/05/09 15:23:49;;;;;;;5.00;2.83;;;;;;;17.68;58.20;97081.63;10527130;28;20039;-24
2022/05/09 15:28:51;;;;;;;5.23;2.60;;;;;;;17.70;58.55;97082.50;10492778;28;20111;-24
2022/05/09 15:33:52;;;;;;;3.05;2.30;;;;;;;17.70;58.53;97077.44;10492365;28;20298;-25
2022/05/09 15:38:54;;;;;;;6.07;2.22;;;;;;;17.69;58.39;97074.06;10492306;28;20383;-25
2022/05/09 15:43:58;;;;;;;4.35;2.67;;;;;;;17.66;58.37;97068.97;10491926;28;20040;-25
2022/05/09 15:49:01;;;;;;;6.70;3.00;;;;;;;17.65;58.38;97061.38;10504263;28;20129;-22
2022/05/09 15:54:02;;;;;;;3.65;3.03;;;;;;;17.86;62.40;97069.13;10501495;28;20043;-24
2022/05/09 15:59:06;;;;;;;4.10;2.88;;;;;;;17.92;62.73;97072.53;10489454;28;20140;-22
2022/05/09 16:04:07;;;;;;;3.67;2.90;;;;;;;17.85;59.86;97064.91;10505247;28;20092;-21
2022/05/09 16:14:28;;;;;;;2.65;1.73;;;;;;;17.71;58.48;97066.47;10487387;28;20086;-25
2022/05/09 16:19:44;;;;;;;3.65;2.17;;;;;;;17.67;58.41;97067.28;10491286;28;20039;-23
2022/05/09 16:24:44;;;;;;;2.28;1.70;;;;;;;17.65;58.12;97072.31;10540074;28;20036;-23
2022/05/09 16:29:45;;;;;;;3.67;1.80;;;;;;;17.66;58.37;97068.13;10532832;28;20049;-23
2022/05/09 16:34:46;;;;;;;3.30;1.50;;;;;;;17.66;58.28;97068.13;10527310;28;20454;-23
2022/05/09 16:39:48;;;;;;;3.30;1.60;;;;;;;17.66;58.12;97068.13;10508579;28;20332;-23
2022/05/09 16:45:05;;;;;;;3.42;1.67;;;;;;;17.65;58.24;97081.63;10528043;28;20446;-26
2022/05/09 16:50:27;;;;;;;7.32;4.90;;;;;;;17.87;63.82;97078.41;10505788;28;20092;-22
2022/05/09 16:55:27;;;;;;;11.77;3.35;;;;;;;17.95;63.58;97087.78;10513988;28;20056;-23
2022/05/09 17:00:29;;;;;;;5.57;2.20;;;;;;;17.88;59.81;97090.25;10534817;28;20115;-22
2022/05/09 17:05:30;;;;;;;6.43;3.22;;;;;;;17.78;59.87;97088.47;10530484;28;20025;-24
2022/05/09 17:10:31;;;;;;;5.93;2.33;;;;;;;17.71;58.36;97087.59;10506279;28;20036;-24
2022/05/09 17:15:36;;;;;;;4.80;2.00;;;;;;;17.71;58.26;97096.84;10527076;28;20405;-23
2022/05/09 17:20:38;;;;;;;3.25;2.03;;;;;;;17.70;58.28;97095.16;10491782;28;20040;-24
2022/05/09 17:25:43;;;;;;;1.65;1.55;;;;;;;17.70;58.35;97100.22;10536216;28;20122;-25
2022/05/09 17:30:45;;;;;;;2.83;1.92;;;;;;;17.69;58.53;97096.00;10530615;28;20028;-24
2022/05/09 17:41:16;;;;;;;2.25;1.73;;;;;;;17.66;58.33;97111.16;10506787;28;20501;-23
2022/05/09 17:46:39;;;;;;;8.95;4.00;;;;;;;17.85;63.76;97116.41;10495465;28;20037;-24
2022/05/09 17:51:40;;;;;;;10.40;4.18;;;;;;;17.95;64.01;97118.19;10541460;28;20425;-23
2022/05/09 17:56:43;;;;;;;5.03;2.20;;;;;;;17.91;59.65;97120.69;10543614;28;20089;-24
2022/05/09 18:01:57;;;;;;;6.20;1.90;;;;;;;17.79;58.62;97129.00;10507714;28;20399;-23
2022/05/09 18:06:57;;;;;;;5.05;1.73;;;;;;;17.72;58.27;97126.41;10504881;28;20043;-23
2022/05/09 18:12:03;;;;;;;1.90;1.70;;;;;;;17.70;58.10;97128.06;10497270;28;20036;-24
2022/05/09 18:17:11;;;;;;;3.60;1.55;;;;;;;17.69;58.32;97133.97;10525109;28;20073;-26
2022/05/09 18:22:11;;;;;;;1.98;1.70;;;;;;;17.70;58.09;97141.59;10522632;28;20036;-24
2022/05/09 18:27:11;;;;;;;20.17;3.80;;;;;;;17.59;59.81;97132.19;10519400;28;20044;-22
2022/05/09 18:32:13;;;;;;;40.90;5.73;;;;;;;17.72;60.22;97139.06;10490349;28;20067;-24
2022/05/09 18:37:20;;;;;;;19.08;3.03;;;;;;;17.72;59.08;97149.19;10497002;28;20340;-23
2022/05/09 18:42:22;;;;;;;7.82;3.70;;;;;;;17.85;64.14;97145.94;10512196;28;20432;-23
2022/05/09 18:47:23;;;;;;;10.90;3.70;;;;;;;17.95;64.39;97150.25;10520608;28;20038;-23
2022/05/09 18:52:35;;;;;;;3.63;2.13;;;;;;;17.94;60.21;97146.03;10531549;28;20032;-23
2022/05/09 18:57:38;;;;;;;7.05;2.25;;;;;;;17.80;58.64;97147.56;10507041;28;20090;-23
2022/05/09 19:02:39;;;;;;;2.03;1.77;;;;;;;17.72;58.70;97154.25;10526735;28;20040;-24
2022/05/09 19:07:44;;;;;;;2.95;1.58;;;;;;;17.69;58.37;97156.75;10491431;28;20041;-24
2022/05/09 19:12:45;;;;;;;3.78;1.67;;;;;;;17.68;58.28;97152.53;10520329;28;20498;-24
2022/05/09 19:17:47;;;;;;;7.20;1.77;;;;;;;17.67;58.16;97153.38;10520668;28;20036;-24
2022/05/09 19:22:47;;;;;;;2.67;1.63;;;;;;;17.66;58.73;97166.88;10542015;28;20517;-24
2022/05/09 19:27:47;;;;;;;2.43;1.70;;;;;;;17.65;58.12;97178.66;10489206;28;20114;-25
2022/05/09 19:32:49;;;;;;;4.73;1.77;;;;;;;17.64;58.12;97181.16;10492073;28;20111;-23
2022/05/09 19:37:49;;;;;;;8.25;2.83;;;;;;;17.74;61.70;97183.00;10509005;28;20843;-24
2022/05/09 19:42:57;;;;;;;6.40;4.15;;;;;;;17.91;63.92;97189.91;10533472;28;20107;-23
2022/05/09 19:47:58;;;;;;;3.97;2.42;;;;;;;17.95;62.04;97193.31;10520913;28;20445;-23
2022/05/09 19:58:17;;;;;;;3.00;2.30;;;;;;;17.74;59.76;97190.59;10519506;28;20081;-23
2022/05/09 20:03:18;;;;;;;3.17;2.07;;;;;;;17.74;58.68;97213.38;10512165;28;20437;-23
2022/05/09 20:08:19;;;;;;;3.85;1.73;;;;;;;17.63;58.48;97202.25;10523488;28;20356;-24
2022/05/09 20:13:20;;;;;;;2.58;1.30;;;;;;;17.70;58.08;97211.63;10491274;28;20548;-24
2022/05/09 20:18:21;;;;;;;5.72;1.80;;;;;;;17.71;58.13;97213.31;10498914;28;20073;-23
2022/05/09 20:23:21;;;;;;;2.63;1.60;;;;;;;17.72;58.01;97222.63;10543587;28;20025;-22
2022/05/09 20:33:46;;;;;;;2.30;1.75;;;;;;;17.71;57.93;97234.44;10502771;28;20501;-25
2022/05/09 20:38:49;;;;;;;6.00;2.97;;;;;;;17.90;63.67;97236.34;10521397;28;20043;-24
2022/05/09 20:43:49;;;;;;;6.60;3.05;;;;;;;17.97;64.41;97229.66;10531966;28;20563;-25
2022/05/09 20:48:51;;;;;;;3.05;1.83;;;;;;;17.87;59.05;97215.19;10502975;28;20242;-23
2022/05/09 20:53:52;;;;;;;2.40;1.75;;;;;;;17.80;58.40;97226.09;10489680;28;20051;-24
2022/05/09 20:58:52;;;;;;;4.37;1.90;;;;;;;17.77;57.74;97221.00;10502758;28;20031;-25
2022/05/09 21:03:52;;;;;;;2.00;1.53;;;;;;;17.74;57.94;97228.59;10515893;28;20641;-24
2022/05/09 21:08:53;;;;;;;4.97;2.23;;;;;;;17.72;57.91;97226.03;10500059;28;20036;-24
2022/05/09 21:13:53;;;;;;;1.60;1.47;;;;;;;17.71;58.00;97226.84;10538250;28;20383;-24
2022/05/09 21:18:53;;;;;;;2.07;1.50;;;;;;;17.69;58.00;97236.13;10520283;28;20040;-25
2022/05/09 21:23:56;;;;;;;1.85;1.58;;;;;;;17.69;57.94;97220.94;10532848;28;20086;-23
2022/05/09 21:28:56;;;;;;;2.67;1.63;;;;;;;17.56;57.96;97203.06;10498153;28;20457;-25
2022/05/09 21:33:57;;;;;;;4.63;3.23;;;;;;;17.82;63.33;97211.78;10497395;28;20032;-23
2022/05/09 21:44:23;;;;;;;3.88;2.10;;;;;;;17.87;59.49;97217.72;10538940;28;20044;-23
2022/05/09 21:49:29;;;;;;;2.05;1.75;;;;;;;17.77;58.43;97228.59;10506925;28;20040;-24
2022/05/09 21:54:33;;;;;;;2.20;1.50;;;;;;;17.74;58.12;97226.03;10495589;28;20042;-23
2022/05/09 21:59:34;;;;;;;2.95;2.20;;;;;;;17.69;58.17;97212.47;10513710;28;20059;-23
2022/05/09 22:04:35;;;;;;;2.30;1.60;;;;;;;17.67;58.03;97204.84;10504160;28;20042;-24
2022/05/09 22:09:46;;;;;;;3.47;1.65;;;;;;;17.69;57.92;97204.88;10495589;28;20067;-23
2022/05/09 22:14:47;;;;;;;3.22;1.88;;;;;;;17.68;58.26;97210.78;10495115;28;20482;-24
2022/05/09 22:19:47;;;;;;;2.27;1.70;;;;;;;17.67;58.08;97209.09;10495925;28;20032;-24
2022/05/09 22:24:50;;;;;;;1.80;1.47;;;;;;;17.66;58.18;97202.31;10528553;28;20865;-22
2022/05/09 22:29:51;;;;;;;4.35;3.25;;;;;;;17.82;62.99;97201.66;10495215;28;20067;-24
2022/05/09 22:34:51;;;;;;;4.50;3.70;;;;;;;17.94;64.09;97199.22;10495288;28;20033;-25
2022/05/09 22:39:52;;;;;;;3.42;2.53;;;;;;;17.94;60.21;97199.22;10495301;28;20029;-24
2022/05/09 22:45:00;;;;;;;1.95;1.80;;;;;;;17.82;58.94;97206.72;10494183;28;20169;-24
2022/05/09 22:50:01;;;;;;;1.98;1.77;;;;;;;17.74;58.44;97215.91;10494208;28;20074;-23
2022/05/09 22:55:01;;;;;;;2.08;1.83;;;;;;;17.71;58.23;97213.31;10494103;28;20052;-23
2022/05/09 23:00:05;;;;;;;1.63;1.52;;;;;;;17.71;58.12;97220.94;10516122;28;20509;-23
2022/05/09 23:05:07;;;;;;;1.80;1.70;;;;;;;17.68;58.35;97214.13;10510811;28;20044;-23
2022/05/09 23:10:08;;;;;;;2.45;2.25;;;;;;;17.70;58.20;97214.16;10493803;28;20040;-25
2022/05/09 23:15:10;;;;;;;2.42;1.52;;;;;;;17.62;58.18;97203.09;10493480;28;20041;-24
2022/05/09 23:20:15;;;;;;;2.53;2.10;;;;;;;17.67;58.37;97225.09;10493500;28;20137;-23
2022/05/09 23:25:17;;;;;;;5.43;4.00;;;;;;;17.73;60.84;97221.81;10548763;28;20032;-23
2022/05/09 23:30:20;;;;;;;5.55;5.00;;;;;;;17.90;63.44;97215.25;10534284;28;20040;-24
2022/05/09 23:35:25;;;;;;;5.15;4.68;;;;;;;17.97;63.40;97216.97;10491837;28;20130;-24
2022/05/09 23:40:26;;;;;;;3.05;2.38;;;;;;;17.86;59.50;97216.03;10492082;28;20035;-23
2022/05/09 23:45:30;;;;;;;3.95;1.60;;;;;;;17.76;58.40;97215.06;10491858;28;20270;-23
2022/05/09 23:50:38;;;;;;;2.95;1.83;;;;;;;17.66;58.14;97199.78;10491620;28;20040;-24
2022/05/09 23:55:38;;;;;;;1.55;1.40;;;;;;;17.70;58.24;97204.91;10491234;28;20032;-24
